Maysville, Oklahoma
Current Conditions -  °F | °C
As of 3:15 AM on Wednesday 22 Oct 2014 (Local Time) from KPVJ Reporting Station
Clear Clear  
Wind Chill: 59°   Ceiling: Unl
Heat Index: 59°   Visibility: 7mi
Dew Point: 58°   Wind: 0mph
Humidity: 96%   Direction: NA
Pressure: 30.07"   Gusts: NA
Location:  34.82°N, 97.41°W
Report Text: KPVJ 220815Z AUTO 00000KT 7SM CLR 15/14 A3007 RMK AO2 T01490142
Loading
Personal Weather Stations






























Interactive Weather Map
Tropical Storm Tracking
New forecast layout! Learn more

10-Day Weather Forecast

Advertisements
Track Severe Weather on mobile